Flight Track Log - Related Links

Times and Time Zones

All times are in EDT time to prevent confusion due to time zone crossing. See the AWE1253 flight status page for this flight to view local times or setup timezone preferences in your user account.

Time Position Orientation Groundspeed Altitude Reporting Facility
EDT Latitude Longitude Course Direction KTS MPH feet Rate Location/Type
Thu 08:43:10 PM 39.8667 -75.2833 233° Southwest 156 180 800  Level Philadelphia TRACON
Thu 08:43:52 PM 39.8500 -75.3167 237° Southwest 205 236 2,000 2,353 Climbing Philadelphia TRACON
Thu 08:44:52 PM 39.8333 -75.4000 255° West 231 266 4,800 2,767 Climbing Philadelphia TRACON
Thu 08:47:00 PM 39.7283 -75.9567 226° Southwest  Level FlightAware Approximate
Thu 08:47:05 PM 39.8331 -75.6044 270° West 272 313 10,900  Level New York Center
Thu 08:48:00 PM 39.6519 -76.0759 233° Southwest  Level FlightAware Approximate
Thu 08:48:04 PM 39.8367 -75.7208 272° West 299 344 11,900  Level New York Center
Thu 08:49:03 PM 39.8083 -75.8433 253° West 356 410 14,200 2,331 Climbing New York Center
Thu 08:50:05 PM 39.7525 -75.9336 231° Southwest 356 410 16,600 2,107 Climbing New York Center
Thu 08:51:51 PM 39.6333 -76.1222 231° Southwest 378 435 20,100 1,880 Climbing Washington Center
Thu 08:52:51 PM 39.5639 -76.2322 231° Southwest 390 449 21,800 1,750 Climbing Washington Center
Thu 08:53:51 PM 39.4925 -76.3417 230° Southwest 396 456 23,600 1,700 Climbing Washington Center
Thu 08:54:51 PM 39.4231 -76.4511 231° Southwest 401 461 25,200 1,950 Climbing Washington Center
Thu 08:55:51 PM 39.3514 -76.5550 228° Southwest 396 456 27,500 1,950 Climbing Washington Center
Thu 08:56:51 PM 39.2858 -76.6614 231° Southwest 396 456 29,100 1,300 Climbing Washington Center
Thu 08:57:51 PM 39.2183 -76.7650 230° Southwest 391 450 30,100 500 Climbing Washington Center
Thu 08:58:51 PM 39.1525 -76.8683 231° Southwest 391 450 30,100  Level Washington Center
Thu 08:59:51 PM 39.0867 -76.9742 231° Southwest 391 450 30,100  Level Washington Center
Thu 09:00:51 PM 39.0128 -77.0717 226° Southwest 386 444 30,100  Level Washington Center
Thu 09:01:51 PM 38.9322 -77.1633 222° Southwest 386 444 30,100  Level Washington Center
Thu 09:02:51 PM 38.8497 -77.2522 220° Southwest 391 450 30,100  Level Washington Center
Thu 09:03:51 PM 38.7653 -77.3408 219° Southwest 391 450 30,100  Level Washington Center
Thu 09:04:51 PM 38.6847 -77.4319 221° Southwest 391 450 30,100  Level Washington Center
Thu 09:05:51 PM 38.6019 -77.5203 220° Southwest 391 450 30,100  Level Washington Center
Thu 09:06:51 PM 38.5192 -77.6111 221° Southwest 383 441 30,100  Level Washington Center
Thu 09:07:51 PM 38.4297 -77.7094 221° Southwest 388 447 30,100  Level Washington Center
Thu 09:08:51 PM 38.3469 -77.7969 220° Southwest 388 447 30,100  Level Washington Center
Thu 09:09:51 PM 38.2639 -77.8872 220° Southwest 388 447 30,100  Level Washington Center
Thu 09:10:51 PM 38.1831 -77.9744 220° Southwest 388 447 30,100  Level Washington Center
Thu 09:11:51 PM 38.1000 -78.0614 219° Southwest 388 447 30,100  Level Washington Center
Thu 09:12:51 PM 38.0189 -78.1511 221° Southwest 388 447 30,100  Level Washington Center
Thu 09:13:51 PM 37.9442 -78.2250 218° Southwest 383 441 30,100  Level Washington Center
Thu 09:14:51 PM 37.8589 -78.3036 216° Southwest 388 447 30,100  Level Washington Center
Thu 09:15:51 PM 37.7736 -78.3844 217° Southwest 388 447 30,100  Level Washington Center
Thu 09:16:51 PM 37.6861 -78.4678 217° Southwest 388 447 30,100  Level Washington Center
Thu 09:17:51 PM 37.6008 -78.5486 217° Southwest 393 452 30,100  Level Washington Center
Thu 09:18:51 PM 37.5047 -78.6364 216° Southwest 398 458 30,100  Level Washington Center
Thu 09:19:51 PM 37.4192 -78.7167 217° Southwest 398 458 30,100  Level Washington Center
Thu 09:20:51 PM 37.3317 -78.7994 217° Southwest 398 458 30,100  Level Washington Center
Thu 09:21:51 PM 37.2417 -78.8792 215° Southwest 398 458 30,100  Level Washington Center
Thu 09:22:51 PM 37.1603 -78.9564 217° Southwest 404 465 30,100  Level Washington Center
Thu 09:23:51 PM 37.0725 -79.0383 217° Southwest 404 465 30,100  Level Washington Center
Thu 09:24:51 PM 36.9825 -79.1228 217° Southwest 404 465 30,100  Level Washington Center
Thu 09:25:51 PM 36.8922 -79.2044 216° Southwest 404 465 30,100  Level Washington Center
Thu 09:26:51 PM 36.8044 -79.2858 217° Southwest 399 459 30,100  Level Washington Center
Thu 09:27:51 PM 36.7056 -79.3769 216° Southwest 399 459 30,100  Level Washington Center
Thu 09:28:51 PM 36.6153 -79.4606 217° Southwest 399 459 30,100  Level Washington Center
Thu 09:29:51 PM 36.5250 -79.5414 216° Southwest 399 459 30,100  Level Washington Center
Thu 09:31:41 PM 36.3647 -79.6842 216° Southwest 413 475 30,100  Level Atlanta Center
Thu 09:32:41 PM 36.2758 -79.7661 217° Southwest 413 475 30,100  Level Atlanta Center
Thu 09:33:41 PM 36.1847 -79.8456 215° Southwest 413 475 30,100  Level Atlanta Center
Thu 09:34:41 PM 36.0897 -79.9353 217° Southwest 413 475 30,100  Level Atlanta Center
Thu 09:35:41 PM 35.9856 -80.0022 207° Southwest 413 475 30,100  Level Atlanta Center
Thu 09:36:41 PM 35.8811 -80.0561 203° Southwest 413 475 30,100  Level Atlanta Center
Thu 09:37:41 PM 35.7722 -80.1100 202° Southwest 421 484 30,100  Level Atlanta Center
Thu 09:38:41 PM 35.6736 -80.1581 202° Southwest 426 490 30,100  Level Atlanta Center
Thu 09:39:41 PM 35.5650 -80.2194 205° Southwest 437 503 30,100  Level Atlanta Center
Thu 09:40:41 PM 35.4539 -80.2756 202° Southwest 432 497 30,100  Level Atlanta Center
Thu 09:41:41 PM 35.3450 -80.3264 201° Southwest 432 497 30,100  Level Atlanta Center
Thu 09:42:41 PM 35.2361 -80.3822 203° Southwest 432 497 30,100  Level Atlanta Center
Thu 09:45:04 PM 34.9739 -80.5139 202° Southwest 434 499 30,100  Level Jacksonville Center
Thu 09:46:04 PM 34.8603 -80.5675 201° Southwest 434 499 30,100 -50 Level Jacksonville Center
Thu 09:47:04 PM 34.7569 -80.6233 204° Southwest 421 484 30,000 -50 Descending Jacksonville Center
Thu 09:48:04 PM 34.6453 -80.6744 201° Southwest 421 484 30,000 50 Level Jacksonville Center
Thu 09:49:04 PM 34.5189 -80.7381 203° Southwest 446 513 30,100 50 Climbing Jacksonville Center
Thu 09:50:04 PM 34.4053 -80.7936 202° Southwest 443 510 30,100  Level Jacksonville Center
Thu 09:51:04 PM 34.2936 -80.8517 203° Southwest 428 493 30,100 -50 Level Jacksonville Center
Thu 09:52:04 PM 34.2003 -80.8864 197° South 423 487 30,000 -50 Descending Jacksonville Center
Thu 09:53:04 PM 34.0906 -80.9417 203° Southwest 423 487 30,000  Level Jacksonville Center
Thu 09:54:04 PM 33.9808 -80.9992 203° Southwest 428 493 30,000 50 Level Jacksonville Center
Thu 09:55:04 PM 33.8647 -81.0492 200° South 435 501 30,100 50 Climbing Jacksonville Center
Thu 09:56:04 PM 33.7569 -81.1039 203° Southwest 435 501 30,100 -50 Level Jacksonville Center
Thu 09:57:04 PM 33.6450 -81.1611 203° Southwest 435 501 30,000 -50 Descending Jacksonville Center
Thu 09:58:04 PM 33.5331 -81.2156 202° Southwest 435 501 30,000  Level Jacksonville Center
Thu 09:59:04 PM 33.4211 -81.2700 202° Southwest 435 501 30,000  Level Jacksonville Center
Thu 10:00:04 PM 33.3069 -81.3242 202° Southwest 435 501 30,000  Level Jacksonville Center
Thu 10:01:04 PM 33.1928 -81.3808 203° Southwest 435 501 30,000  Level Jacksonville Center
Thu 10:02:04 PM 33.0831 -81.4347 202° Southwest 435 501 30,000  Level Jacksonville Center
Thu 10:03:04 PM 32.9708 -81.4911 203° Southwest 435 501 30,000  Level Jacksonville Center
Thu 10:04:04 PM 32.8567 -81.5447 202° Southwest 435 501 30,000  Level Jacksonville Center
Thu 10:05:04 PM 32.7467 -81.5983 202° Southwest 435 501 30,000 50 Level Jacksonville Center
Thu 10:06:04 PM 32.6344 -81.6542 203° Southwest 428 493 30,100 50 Climbing Jacksonville Center
Thu 10:07:04 PM 32.5139 -81.7125 202° Southwest 436 502 30,100  Level Jacksonville Center
Thu 10:08:04 PM 32.3911 -81.7461 193° South 436 502 30,100  Level Jacksonville Center
Thu 10:09:04 PM 32.2825 -81.7672 189° South 448 516 30,100  Level Jacksonville Center
Thu 10:10:04 PM 32.1450 -81.7983 191° South 448 516 30,100  Level Jacksonville Center
Thu 10:11:04 PM 32.0347 -81.8242 191° South 448 516 30,100  Level Jacksonville Center
Thu 10:12:04 PM 31.8992 -81.8525 190° South 448 516 30,100  Level Jacksonville Center
Thu 10:13:04 PM 31.7742 -81.8833 192° South 448 516 30,100  Level Jacksonville Center
Thu 10:14:04 PM 31.6658 -81.9039 189° South 454 522 30,100  Level Jacksonville Center
Thu 10:15:04 PM 31.5283 -81.9347 191° South 449 517 30,100  Level Jacksonville Center
Thu 10:16:04 PM 31.4072 -81.9628 191° South 449 517 30,100 -50 Level Jacksonville Center
Thu 10:17:04 PM 31.2928 -81.9931 193° South 454 522 30,000 -50 Descending Jacksonville Center
Thu 10:18:04 PM 31.1697 -82.0186 190° South 454 522 30,000  Level Jacksonville Center
Thu 10:19:04 PM 31.0467 -82.0439 190° South 454 522 30,000  Level Jacksonville Center
Thu 10:20:04 PM 30.9236 -82.0717 191° South 454 522 30,000  Level Jacksonville Center
Thu 10:21:04 PM 30.8006 -82.0994 191° South 454 522 30,000  Level Jacksonville Center
Thu 10:22:04 PM 30.6608 -82.1294 190° South 454 522 30,000  Level Jacksonville Center
Thu 10:23:04 PM 30.5358 -82.1569 191° South 459 528 30,000 50 Level Jacksonville Center
Thu 10:24:04 PM 30.4231 -82.1772 189° South 459 528 30,100  Climbing Jacksonville Center
Thu 10:25:04 PM 30.2939 -82.2044 190° South 469 540 30,000 -50 Descending Jacksonville Center
Thu 10:26:04 PM 30.1667 -82.2319 191° South 469 540 30,000  Level Jacksonville Center
Thu 10:27:04 PM 30.0394 -82.2592 190° South 469 540 30,000  Level Jacksonville Center
Thu 10:28:04 PM 29.9019 -82.2936 192° South 469 540 30,000 50 Level Jacksonville Center
Thu 10:29:04 PM 29.7747 -82.3206 190° South 469 540 30,100 -300 Climbing Jacksonville Center
Thu 10:30:04 PM 29.6619 -82.3406 189° South 469 540 29,400 -1,500 Descending Jacksonville Center
Thu 10:31:04 PM 29.5325 -82.3531 185° South 469 540 27,100 -1,700 Descending Jacksonville Center
Thu 10:32:04 PM 29.4031 -82.3372 174° South 464 534 26,000 -1,050 Descending Jacksonville Center
Thu 10:33:04 PM 29.2736 -82.3211 174° South 464 534 25,000 -1,900 Descending Jacksonville Center
Thu 10:34:04 PM 29.1442 -82.3053 174° South 464 534 22,200 -2,750 Descending Jacksonville Center
Thu 10:35:04 PM 29.0208 -82.2919 175° South 464 534 19,500 -2,700 Descending Jacksonville Center
Thu 10:36:04 PM 28.8914 -82.2758 174° South 452 520 16,800 -2,341 Descending Jacksonville Center
Thu 10:37:48 PM 28.6833 -82.2500 174° South 396 456 13,100 -1,941 Descending Tampa TRACON
Thu 10:38:54 PM 28.5667 -82.2667 187° South 394 453 11,300 -952 Descending Tampa TRACON
Thu 10:39:54 PM 28.4667 -82.3000 196° South 385 443 11,100 -95 Descending Tampa TRACON
Thu 10:41:00 PM 28.3500 -82.3167 187° South 383 441 11,100 -95 Level Tampa TRACON
Thu 10:42:00 PM 28.2500 -82.3500 196° South 373 429 10,900 -591 Descending Tampa TRACON
Thu 10:43:12 PM 28.1500 -82.3833 196° South 312 359 9,800 -1,190 Descending Tampa TRACON
Thu 10:44:06 PM 28.0667 -82.4000 190° South 299 344 8,400 -1,500 Descending Tampa TRACON
Thu 10:45:00 PM 28.0000 -82.4167 192° South 291 335 7,100 -1,421 Descending Tampa TRACON
Thu 10:46:00 PM 27.9167 -82.4167 180° South 279 321 5,700 -1,474 Descending Tampa TRACON
Thu 10:46:54 PM 27.8500 -82.4167 180° South 270 311 4,300 -1,200 Descending Tampa TRACON
Thu 10:48:00 PM 27.8167 -82.4833 241° Southwest 256 295 3,300 -909 Descending Tampa TRACON

Login

Don't have an account? Register now (free) for customized features, flight alerts, and more!